Time;durP1;ratioP1;P1;durP2;ratioP2;P2;SDS_P1;SDS_P2;PMS_P1;PMS_P2;Temp;Humidity;BMP_temperature;BMP_pressure;BME280_temperature;BME280_humidity;BME280_pressure;Samples;Min_cycle;Max_cycle;Signal;HPM_P1;HPM_P2
2023/08/31 00:01:48;;;;;;;4.95;2.00;;;16.90;99.90;;;;;;4995500;28;20022;-72
2023/08/31 00:04:17;;;;;;;4.13;2.67;;;16.90;99.90;;;;;;4995383;28;20023;-72
2023/08/31 00:06:44;;;;;;;5.15;2.50;;;16.90;99.90;;;;;;4995122;28;20142;-73
2023/08/31 00:09:10;;;;;;;3.65;2.40;;;16.90;99.90;;;;;;4995231;28;20023;-72
2023/08/31 00:11:36;;;;;;;5.25;2.40;;;16.90;99.90;;;;;;4995105;28;20049;-73
2023/08/31 00:14:02;;;;;;;3.88;2.22;;;16.90;99.90;;;;;;4995014;28;20030;-72
2023/08/31 00:16:28;;;;;;;7.43;2.35;;;16.90;99.90;;;;;;4995054;28;20097;-74
2023/08/31 00:18:56;;;;;;;6.93;2.72;;;16.80;99.90;;;;;;4995048;28;20034;-72
2023/08/31 00:21:22;;;;;;;4.95;2.50;;;16.80;99.90;;;;;;4994918;28;20030;-72
2023/08/31 00:23:48;;;;;;;3.58;2.33;;;16.80;99.90;;;;;;4995112;28;20027;-73
2023/08/31 00:26:14;;;;;;;2.67;2.30;;;16.80;99.90;;;;;;4995038;28;20023;-73
2023/08/31 00:28:42;;;;;;;3.97;2.63;;;16.80;99.90;;;;;;4994667;28;20030;-73
2023/08/31 00:31:08;;;;;;;3.55;2.90;;;16.80;99.90;;;;;;4994785;28;20026;-73
2023/08/31 00:33:34;;;;;;;4.40;2.90;;;16.70;99.90;;;;;;4994914;28;20022;-74
2023/08/31 00:36:03;;;;;;;3.72;2.70;;;16.70;99.90;;;;;;4994699;28;20056;-74
2023/08/31 00:38:30;;;;;;;4.38;2.33;;;16.70;99.90;;;;;;4994761;28;20026;-72
2023/08/31 00:40:55;;;;;;;4.80;2.92;;;16.70;99.90;;;;;;4994650;28;20460;-74
2023/08/31 00:43:21;;;;;;;5.78;2.80;;;16.70;99.90;;;;;;4994290;28;20033;-73
2023/08/31 00:45:50;;;;;;;4.20;3.35;;;16.70;99.90;;;;;;4994611;28;20477;-74
2023/08/31 00:48:17;;;;;;;4.72;3.20;;;16.70;99.90;;;;;;4994506;28;20030;-72
2023/08/31 00:50:44;;;;;;;5.63;3.38;;;16.70;99.90;;;;;;4994429;28;20037;-74
2023/08/31 00:53:10;;;;;;;4.30;3.33;;;16.70;99.90;;;;;;4994530;28;20038;-72
2023/08/31 00:55:36;;;;;;;3.83;2.80;;;16.70;99.90;;;;;;4993946;28;20015;-74
2023/08/31 00:58:02;;;;;;;4.85;3.30;;;16.70;99.90;;;;;;4994683;28;20113;-74
2023/08/31 01:00:56;;;;;;;3.83;3.38;;;16.70;99.90;;;;;;4994336;28;20093;-72
2023/08/31 01:03:32;;;;;;;4.72;3.60;;;16.70;99.90;;;;;;4994194;28;20028;-72
2023/08/31 01:06:29;;;;;;;5.60;3.80;;;16.70;99.90;;;;;;4994163;28;20034;-73
2023/08/31 01:09:07;;;;;;;5.32;4.00;;;16.60;99.90;;;;;;4994289;28;20022;-74
2023/08/31 01:11:33;;;;;;;6.13;3.90;;;16.60;99.90;;;;;;4993662;28;20038;-74
2023/08/31 01:14:08;;;;;;;9.65;3.85;;;16.60;99.90;;;;;;4994176;28;20472;-74
2023/08/31 01:16:35;;;;;;;6.15;4.20;;;16.50;99.90;;;;;;4993885;28;20495;-73
2023/08/31 01:19:05;;;;;;;6.25;4.22;;;16.50;99.90;;;;;;4994020;28;20044;-72
2023/08/31 01:21:38;;;;;;;5.18;3.70;;;16.50;99.90;;;;;;4993860;28;20033;-72
2023/08/31 01:24:05;;;;;;;6.82;3.67;;;16.50;99.90;;;;;;4993951;28;20018;-74
2023/08/31 01:26:31;;;;;;;5.95;3.72;;;16.50;99.90;;;;;;4993612;28;20498;-73
2023/08/31 01:28:57;;;;;;;5.53;3.80;;;16.50;99.90;;;;;;4994046;28;20026;-73
2023/08/31 01:31:23;;;;;;;5.50;4.18;;;16.50;99.90;;;;;;4993702;28;20088;-72
2023/08/31 01:33:48;;;;;;;5.32;3.97;;;16.50;99.90;;;;;;4993995;28;20030;-72
2023/08/31 01:36:27;;;;;;;5.90;3.67;;;16.50;99.90;;;;;;4993843;28;20027;-73
2023/08/31 01:39:12;;;;;;;7.05;4.07;;;16.40;99.90;;;;;;4993857;28;20109;-74
2023/08/31 01:41:42;;;;;;;6.82;4.00;;;16.40;99.90;;;;;;4993260;28;20019;-74
2023/08/31 01:44:12;;;;;;;4.65;3.70;;;16.40;99.90;;;;;;4993924;28;20460;-73
2023/08/31 01:46:37;;;;;;;7.80;4.57;;;16.40;99.90;;;;;;4993489;28;20023;-72
2023/08/31 01:49:05;;;;;;;5.43;3.90;;;16.40;99.90;;;;;;4993736;28;20052;-72
2023/08/31 01:51:31;;;;;;;5.10;4.15;;;16.40;99.90;;;;;;4993465;28;20038;-72
2023/08/31 01:53:58;;;;;;;4.55;4.10;;;16.40;99.90;;;;;;4993359;28;20546;-74
2023/08/31 01:56:24;;;;;;;8.80;4.55;;;16.30;99.90;;;;;;4993799;28;20066;-72
2023/08/31 01:58:49;;;;;;;7.38;4.00;;;16.30;99.90;;;;;;4993528;28;20538;-73
2023/08/31 02:01:15;;;;;;;5.57;3.67;;;16.40;99.90;;;;;;4993604;28;20034;-71
2023/08/31 02:03:40;;;;;;;5.80;3.97;;;16.30;99.90;;;;;;4993412;28;20476;-72
2023/08/31 02:06:06;;;;;;;6.72;3.92;;;16.30;99.90;;;;;;4993519;28;20035;-74
2023/08/31 02:08:32;;;;;;;6.35;3.60;;;16.30;99.90;;;;;;4993065;28;20109;-73
2023/08/31 02:10:58;;;;;;;4.85;3.75;;;16.30;99.90;;;;;;4993482;28;20464;-74
2023/08/31 02:13:23;;;;;;;4.90;3.42;;;16.30;99.90;;;;;;4993483;28;20125;-72
2023/08/31 02:15:53;;;;;;;6.43;4.00;;;16.30;99.90;;;;;;4993662;28;20033;-72
2023/08/31 02:18:19;;;;;;;5.07;4.15;;;16.30;99.90;;;;;;4994979;28;20491;-72
2023/08/31 02:20:45;;;;;;;8.32;4.20;;;16.20;99.90;;;;;;4997184;28;20030;-72
2023/08/31 02:23:11;;;;;;;7.30;4.03;;;16.20;99.90;;;;;;4997077;28;20080;-74
2023/08/31 02:25:37;;;;;;;4.65;4.05;;;16.20;99.90;;;;;;4997215;28;20415;-71
2023/08/31 02:28:03;;;;;;;8.00;4.82;;;16.20;99.90;;;;;;4997300;28;20498;-72
2023/08/31 02:30:29;;;;;;;5.80;3.83;;;16.20;99.90;;;;;;4997258;28;20049;-74
2023/08/31 02:32:55;;;;;;;5.43;3.88;;;16.10;99.90;;;;;;4996819;28;20038;-74
2023/08/31 02:35:21;;;;;;;5.47;3.67;;;16.10;99.90;;;;;;4996929;28;20081;-72
2023/08/31 02:37:46;;;;;;;8.02;4.28;;;16.10;99.90;;;;;;4996660;28;20018;-73
2023/08/31 02:40:12;;;;;;;5.80;3.85;;;16.10;99.90;;;;;;4997034;28;20026;-73
2023/08/31 02:42:37;;;;;;;6.88;4.40;;;16.10;99.90;;;;;;4996451;28;20467;-72
2023/08/31 02:45:04;;;;;;;6.75;4.00;;;16.10;99.90;;;;;;4996541;28;20106;-72
2023/08/31 02:47:29;;;;;;;6.13;3.67;;;16.10;99.90;;;;;;4996405;28;20411;-73
2023/08/31 02:49:56;;;;;;;4.43;4.00;;;16.10;99.90;;;;;;4996540;28;20026;-74
2023/08/31 02:52:21;;;;;;;8.73;5.20;;;16.10;99.90;;;;;;4996206;28;20468;-72
2023/08/31 02:54:47;;;;;;;6.00;4.05;;;16.10;99.90;;;;;;4996555;28;20023;-72
2023/08/31 02:57:13;;;;;;;5.75;4.10;;;16.00;99.90;;;;;;4996733;28;20041;-72
2023/08/31 02:59:38;;;;;;;5.03;4.00;;;16.00;99.90;;;;;;4996594;28;20011;-71
2023/08/31 03:02:04;;;;;;;5.93;4.82;;;16.00;99.90;;;;;;4996388;28;20423;-72
2023/08/31 03:04:30;;;;;;;7.18;4.32;;;16.00;99.90;;;;;;4996443;28;20026;-72
2023/08/31 03:06:56;;;;;;;6.90;3.97;;;16.00;99.90;;;;;;4996116;28;20432;-73
2023/08/31 03:09:21;;;;;;;9.20;4.75;;;16.00;99.90;;;;;;4996367;28;20485;-74
2023/08/31 03:11:47;;;;;;;6.22;4.45;;;16.00;99.90;;;;;;4996396;28;20469;-74
2023/08/31 03:14:13;;;;;;;6.65;4.03;;;16.00;99.90;;;;;;4996196;28;20089;-74
2023/08/31 03:16:38;;;;;;;6.38;4.22;;;16.00;99.90;;;;;;4996224;28;20022;-74
2023/08/31 03:19:05;;;;;;;5.93;4.40;;;16.00;99.90;;;;;;4996094;28;20403;-73
2023/08/31 03:21:31;;;;;;;6.05;4.05;;;15.90;99.90;;;;;;4995965;28;20027;-72
2023/08/31 03:23:57;;;;;;;6.05;4.35;;;16.00;99.90;;;;;;4996029;28;20475;-72
2023/08/31 03:26:22;;;;;;;6.07;4.22;;;16.00;99.90;;;;;;4996327;28;20029;-72
2023/08/31 03:28:48;;;;;;;5.18;3.75;;;15.90;99.90;;;;;;4995416;28;20022;-72
2023/08/31 03:31:13;;;;;;;5.00;4.20;;;15.90;99.90;;;;;;4995286;28;20030;-71
2023/08/31 03:33:39;;;;;;;6.38;4.07;;;15.90;99.90;;;;;;4995849;28;20081;-72
2023/08/31 03:36:05;;;;;;;7.40;4.45;;;16.00;99.90;;;;;;4994341;28;20030;-74
2023/08/31 03:38:31;;;;;;;6.72;3.80;;;15.90;99.90;;;;;;4996016;28;20488;-71
2023/08/31 03:40:58;;;;;;;6.20;3.78;;;15.90;99.90;;;;;;4995629;28;20058;-72
2023/08/31 03:43:23;;;;;;;6.35;3.70;;;15.90;99.90;;;;;;4995767;28;20034;-72
2023/08/31 03:45:55;;;;;;;6.22;4.03;;;15.90;99.90;;;;;;4995698;28;20487;-71
2023/08/31 03:48:21;;;;;;;5.63;3.85;;;15.90;99.90;;;;;;4996116;28;20026;-71
2023/08/31 03:50:51;;;;;;;5.60;3.67;;;15.80;99.90;;;;;;4993548;28;20110;-72
2023/08/31 03:53:17;;;;;;;5.55;3.58;;;15.80;99.90;;;;;;4979426;28;20022;-72
2023/08/31 03:55:43;;;;;;;6.07;3.70;;;15.80;99.90;;;;;;4995528;28;20030;-73
2023/08/31 03:58:09;;;;;;;4.07;3.13;;;15.90;99.90;;;;;;4995466;28;20492;-72
2023/08/31 04:00:35;;;;;;;5.13;3.22;;;15.80;99.90;;;;;;4995309;28;20451;-71
2023/08/31 04:03:01;;;;;;;7.55;3.67;;;15.80;99.90;;;;;;4995099;28;20069;-74
2023/08/31 04:05:26;;;;;;;5.65;3.20;;;15.80;99.90;;;;;;4994679;28;20050;-74
2023/08/31 04:07:52;;;;;;;4.05;3.28;;;15.80;99.90;;;;;;4994097;28;20023;-72
2023/08/31 04:10:19;;;;;;;5.22;2.97;;;15.80;99.90;;;;;;4995265;28;20372;-74
2023/08/31 04:12:44;;;;;;;3.42;3.00;;;15.80;99.90;;;;;;4995214;28;20452;-73
2023/08/31 04:15:11;;;;;;;4.38;2.97;;;15.80;99.90;;;;;;4995137;28;20509;-72
2023/08/31 04:17:36;;;;;;;5.40;3.45;;;15.80;99.90;;;;;;4995093;28;20117;-71
2023/08/31 04:20:05;;;;;;;8.40;3.47;;;15.80;99.90;;;;;;4994754;28;20073;-74
2023/08/31 04:22:31;;;;;;;6.07;3.30;;;15.80;99.90;;;;;;4995018;28;20373;-74
2023/08/31 04:24:56;;;;;;;6.20;3.20;;;15.80;99.90;;;;;;4994914;28;20528;-74
2023/08/31 04:27:22;;;;;;;5.25;3.08;;;15.80;99.90;;;;;;4995120;28;20530;-72
2023/08/31 04:29:48;;;;;;;6.22;3.15;;;15.80;99.90;;;;;;4994931;28;20404;-73
2023/08/31 04:32:14;;;;;;;5.25;3.10;;;15.80;99.90;;;;;;4994614;28;20041;-72
2023/08/31 04:34:39;;;;;;;6.05;2.88;;;15.80;99.90;;;;;;4994543;28;20469;-73
2023/08/31 04:37:05;;;;;;;6.30;3.40;;;15.80;99.90;;;;;;4994748;28;20109;-72
2023/08/31 04:39:30;;;;;;;6.32;3.28;;;15.80;99.90;;;;;;4994814;28;20027;-72
2023/08/31 04:41:56;;;;;;;7.47;3.17;;;15.80;99.90;;;;;;4994007;28;20026;-73
2023/08/31 04:44:22;;;;;;;6.18;3.72;;;15.80;99.90;;;;;;4994749;28;20022;-74
2023/08/31 04:46:47;;;;;;;6.85;3.13;;;15.80;99.90;;;;;;4977037;28;20023;-74
2023/08/31 04:49:13;;;;;;;5.53;3.13;;;15.80;99.90;;;;;;4994277;28;20109;-71
2023/08/31 04:51:41;;;;;;;6.80;3.33;;;15.80;99.90;;;;;;4976850;28;20415;-72
2023/08/31 04:54:07;;;;;;;5.82;3.10;;;15.80;99.90;;;;;;4994634;28;20025;-74
2023/08/31 04:56:33;;;;;;;6.00;3.60;;;15.80;99.90;;;;;;4976874;28;20125;-72
2023/08/31 04:59:00;;;;;;;5.38;3.72;;;15.80;99.90;;;;;;4994058;28;20030;-72
2023/08/31 05:01:25;;;;;;;9.43;3.80;;;15.80;99.90;;;;;;4993884;28;20077;-72
2023/08/31 05:03:51;;;;;;;7.97;3.58;;;15.70;99.90;;;;;;4976720;28;20027;-74
2023/08/31 05:06:17;;;;;;;8.57;3.83;;;15.70;99.90;;;;;;4992543;28;20105;-74
2023/08/31 05:08:42;;;;;;;4.53;2.55;;;15.70;99.90;;;;;;4994186;28;20030;-75
2023/08/31 05:11:08;;;;;;;4.88;2.75;;;16.10;99.90;;;;;;4993874;28;20029;-72
2023/08/31 05:13:34;;;;;;;4.57;2.60;;;16.40;99.90;;;;;;4994130;28;20122;-75
2023/08/31 05:16:00;;;;;;;5.00;2.65;;;16.60;99.90;;;;;;4994174;28;20464;-74
2023/08/31 05:18:25;;;;;;;3.78;2.58;;;16.70;99.90;;;;;;4993993;28;20038;-74
2023/08/31 05:20:51;;;;;;;3.97;2.50;;;16.70;99.90;;;;;;4993920;28;20479;-74
2023/08/31 05:23:16;;;;;;;8.35;3.10;;;16.80;99.90;;;;;;4993966;28;20049;-74
2023/08/31 05:25:43;;;;;;;7.53;3.15;;;16.90;99.90;;;;;;4994019;28;20018;-74
2023/08/31 05:28:09;;;;;;;5.28;2.85;;;16.90;99.90;;;;;;4994050;28;20031;-73
2023/08/31 05:30:34;;;;;;;5.65;2.70;;;16.90;99.90;;;;;;4993906;28;20357;-72
2023/08/31 05:33:01;;;;;;;5.13;2.67;;;16.90;99.90;;;;;;4993666;28;20487;-74
2023/08/31 05:35:27;;;;;;;6.03;2.50;;;17.00;99.90;;;;;;4976387;28;20077;-74
2023/08/31 05:37:52;;;;;;;4.60;3.10;;;16.90;99.90;;;;;;4993781;28;20076;-74
2023/08/31 05:40:18;;;;;;;6.75;3.38;;;17.00;99.90;;;;;;4976436;28;20427;-73
2023/08/31 05:42:44;;;;;;;5.75;3.42;;;17.00;99.90;;;;;;4976055;28;20019;-74
2023/08/31 05:45:10;;;;;;;4.13;3.60;;;17.00;99.90;;;;;;4993599;28;20033;-74
2023/08/31 05:47:36;;;;;;;8.48;3.72;;;17.00;99.90;;;;;;4993350;28;20031;-74
2023/08/31 05:50:02;;;;;;;6.93;3.20;;;17.10;99.90;;;;;;4993700;28;20026;-73
2023/08/31 05:52:28;;;;;;;5.45;3.67;;;17.10;99.90;;;;;;4993669;28;20046;-72
2023/08/31 05:54:54;;;;;;;6.38;3.67;;;17.10;99.90;;;;;;4997841;28;20118;-74
2023/08/31 05:57:21;;;;;;;5.35;3.60;;;17.10;99.90;;;;;;4997576;28;20526;-74
2023/08/31 05:59:47;;;;;;;4.97;3.67;;;17.10;99.90;;;;;;4997977;28;20024;-72
2023/08/31 06:02:13;;;;;;;6.18;3.15;;;17.10;99.90;;;;;;4997397;28;20030;-74
2023/08/31 06:04:38;;;;;;;5.13;3.67;;;17.10;99.90;;;;;;4980238;28;20026;-74
2023/08/31 06:07:04;;;;;;;6.05;3.83;;;17.10;99.90;;;;;;4997618;28;20468;-74
2023/08/31 06:09:30;;;;;;;7.85;3.58;;;17.10;99.90;;;;;;4997487;28;20102;-74
2023/08/31 06:11:55;;;;;;;6.60;4.00;;;17.10;99.90;;;;;;4997245;28;20372;-72
2023/08/31 06:14:21;;;;;;;6.78;3.45;;;17.10;99.90;;;;;;4997443;28;20034;-74
2023/08/31 06:16:46;;;;;;;6.47;3.53;;;17.10;99.90;;;;;;4979680;28;20026;-72
2023/08/31 06:19:15;;;;;;;5.00;3.65;;;17.10;99.90;;;;;;4997058;28;20046;-74
2023/08/31 06:21:41;;;;;;;7.10;3.58;;;17.10;99.90;;;;;;4997207;28;20030;-72
2023/08/31 06:24:09;;;;;;;6.70;3.55;;;17.20;99.90;;;;;;4977845;28;20109;-72
2023/08/31 06:26:35;;;;;;;8.88;3.75;;;17.20;99.90;;;;;;4976552;28;20027;-74
2023/08/31 06:29:03;;;;;;;5.95;3.20;;;17.20;99.90;;;;;;4977762;28;20025;-73
2023/08/31 06:31:29;;;;;;;5.43;3.80;;;17.20;99.90;;;;;;4960280;28;20113;-71
2023/08/31 06:33:54;;;;;;;6.93;3.50;;;17.20;99.90;;;;;;4960204;28;20432;-73
2023/08/31 06:36:20;;;;;;;6.63;3.65;;;17.20;99.90;;;;;;4977523;28;20046;-73
2023/08/31 06:38:45;;;;;;;8.85;3.63;;;17.20;99.90;;;;;;4977622;28;20106;-74
2023/08/31 06:41:11;;;;;;;8.13;4.00;;;17.20;99.90;;;;;;4972403;28;20042;-71
2023/08/31 06:43:37;;;;;;;11.38;4.40;;;17.30;99.90;;;;;;4975128;28;20039;-72
2023/08/31 06:46:02;;;;;;;5.28;3.00;;;17.30;99.90;;;;;;4976672;28;20039;-73
2023/08/31 06:48:28;;;;;;;8.05;4.15;;;17.30;99.90;;;;;;4977447;28;20035;-71
2023/08/31 06:50:54;;;;;;;8.98;4.18;;;17.30;99.90;;;;;;4976191;28;20034;-73
2023/08/31 06:53:20;;;;;;;5.90;2.95;;;17.30;99.90;;;;;;4986362;28;20031;-71
2023/08/31 06:55:45;;;;;;;8.38;3.10;;;17.30;99.90;;;;;;4981746;28;20027;-72
2023/08/31 06:58:11;;;;;;;7.38;3.10;;;17.30;99.90;;;;;;4992065;28;20034;-72
2023/08/31 07:00:37;;;;;;;9.45;4.22;;;17.40;99.90;;;;;;4994271;28;20120;-73
2023/08/31 07:03:05;;;;;;;6.93;3.10;;;17.40;99.90;;;;;;4958557;28;20514;-71
2023/08/31 07:05:35;;;;;;;5.88;3.22;;;17.40;99.90;;;;;;4976632;28;20385;-71
2023/08/31 07:08:02;;;;;;;4.90;1.90;;;17.40;99.90;;;;;;4977598;28;20023;-72
2023/08/31 07:10:27;;;;;;;7.93;3.60;;;17.50;99.90;;;;;;4959335;28;20102;-72
2023/08/31 07:12:53;;;;;;;9.15;2.92;;;17.50;99.90;;;;;;4974986;28;20817;-74
2023/08/31 07:15:19;;;;;;;4.45;1.98;;;17.50;99.90;;;;;;4974919;28;20063;-72
2023/08/31 07:17:44;;;;;;;7.65;3.60;;;17.60;99.90;;;;;;4979142;28;20109;-72
2023/08/31 07:20:12;;;;;;;7.47;2.40;;;17.60;99.90;;;;;;4998568;28;20058;-73
2023/08/31 07:22:37;;;;;;;3.00;1.55;;;17.60;99.90;;;;;;5009854;28;20034;-73
2023/08/31 07:25:05;;;;;;;6.53;2.63;;;17.60;99.90;;;;;;4997997;28;20025;-75
2023/08/31 07:27:31;;;;;;;9.00;2.85;;;17.70;99.90;;;;;;4993397;28;20053;-74
2023/08/31 07:29:57;;;;;;;7.22;2.97;;;17.70;99.90;;;;;;5000855;28;20054;-73
2023/08/31 07:32:22;;;;;;;4.82;2.30;;;17.70;99.90;;;;;;5015588;28;20549;-74
2023/08/31 07:34:48;;;;;;;7.18;3.05;;;17.70;99.90;;;;;;4995708;28;20030;-75
2023/08/31 07:37:14;;;;;;;8.98;3.45;;;17.80;99.90;;;;;;4994086;28;20037;-73
2023/08/31 07:39:40;;;;;;;7.50;2.58;;;17.80;99.90;;;;;;4995450;28;20101;-72
2023/08/31 07:42:06;;;;;;;8.20;2.90;;;17.80;99.90;;;;;;4991510;28;20022;-74
2023/08/31 07:44:31;;;;;;;6.18;2.53;;;17.80;99.90;;;;;;4998743;28;20023;-72
2023/08/31 07:46:57;;;;;;;9.73;2.70;;;17.90;99.90;;;;;;4997979;28;20535;-73
2023/08/31 07:49:23;;;;;;;9.45;3.17;;;17.90;99.90;;;;;;4993504;28;20041;-72
2023/08/31 07:51:49;;;;;;;10.38;2.70;;;17.90;99.90;;;;;;4995312;28;20034;-73
2023/08/31 07:54:21;;;;;;;7.15;2.58;;;18.00;99.90;;;;;;4995799;28;20069;-72
2023/08/31 07:56:47;;;;;;;;;;;18.00;99.90;;;;;;4992996;28;20049;-71
2023/08/31 07:59:12;;;;;;;6.25;2.88;;;18.00;99.90;;;;;;5005239;28;19909;-72
2023/08/31 08:01:38;;;;;;;8.73;2.97;;;18.00;99.90;;;;;;4977676;28;20022;-73
2023/08/31 08:04:03;;;;;;;5.40;2.30;;;18.00;99.90;;;;;;5000715;28;20034;-73
2023/08/31 08:06:29;;;;;;;9.52;3.13;;;18.10;99.90;;;;;;4999591;28;20022;-76
2023/08/31 08:08:55;;;;;;;8.48;2.30;;;18.10;99.90;;;;;;4992686;28;20466;-74
2023/08/31 08:11:22;;;;;;;5.78;2.40;;;18.10;99.90;;;;;;4993387;28;20030;-74
2023/08/31 08:13:48;;;;;;;6.60;2.17;;;18.10;99.90;;;;;;4991822;28;20046;-73
2023/08/31 08:16:14;;;;;;;5.18;1.58;;;18.10;99.90;;;;;;4991891;28;20065;-74
2023/08/31 08:18:40;;;;;;;6.30;2.80;;;18.10;99.90;;;;;;4985007;28;20018;-73
2023/08/31 08:21:06;;;;;;;8.52;2.47;;;18.20;99.90;;;;;;4990040;28;20031;-73
2023/08/31 08:23:32;;;;;;;7.03;2.30;;;18.20;99.90;;;;;;4992937;28;20026;-75
2023/08/31 08:26:00;;;;;;;8.32;2.45;;;18.20;99.90;;;;;;4994234;28;20054;-73
2023/08/31 08:28:26;;;;;;;6.65;1.83;;;18.20;99.90;;;;;;4994005;28;20480;-72
2023/08/31 08:30:52;;;;;;;7.93;2.58;;;18.30;99.90;;;;;;4992426;28;20475;-76
2023/08/31 08:33:18;;;;;;;8.10;2.55;;;18.30;99.90;;;;;;4993679;28;20045;-76
2023/08/31 08:35:43;;;;;;;7.90;2.35;;;18.40;99.90;;;;;;4992773;28;20023;-75
2023/08/31 08:38:09;;;;;;;6.05;2.20;;;18.40;99.90;;;;;;4992527;28;20487;-77
2023/08/31 08:40:35;;;;;;;6.38;2.40;;;18.40;99.90;;;;;;4993808;28;20089;-75
2023/08/31 08:43:01;;;;;;;8.85;2.97;;;18.40;99.90;;;;;;4993350;28;20521;-73
2023/08/31 08:45:36;;;;;;;7.88;2.45;;;18.50;99.90;;;;;;4992760;28;20023;-73
2023/08/31 08:48:02;;;;;;;6.40;2.33;;;18.50;99.90;;;;;;4992554;28;20038;-76
2023/08/31 08:50:29;;;;;;;6.50;2.47;;;18.50;99.90;;;;;;4993394;28;20027;-77
2023/08/31 08:52:54;;;;;;;6.57;2.35;;;18.50;99.90;;;;;;4993638;28;20116;-75
2023/08/31 08:55:22;;;;;;;5.72;2.17;;;18.60;99.90;;;;;;4991393;28;20710;-76
2023/08/31 08:57:47;;;;;;;7.22;3.13;;;18.60;99.90;;;;;;5000566;28;20105;-77
2023/08/31 09:00:13;;;;;;;5.57;2.20;;;18.60;99.90;;;;;;5013924;28;20049;-75
2023/08/31 09:02:39;;;;;;;7.10;2.15;;;18.70;99.90;;;;;;4994033;28;20026;-73
2023/08/31 09:05:05;;;;;;;8.40;2.38;;;18.60;99.90;;;;;;4993564;28;20507;-73
2023/08/31 09:07:34;;;;;;;7.68;2.60;;;18.70;99.90;;;;;;4994090;28;20031;-74
2023/08/31 09:10:00;;;;;;;7.30;2.70;;;18.70;99.90;;;;;;5001669;28;20093;-75
2023/08/31 09:12:25;;;;;;;6.72;2.63;;;18.70;99.90;;;;;;4991945;28;20472;-76
2023/08/31 09:15:02;;;;;;;6.65;2.10;;;18.80;99.90;;;;;;4991205;28;20036;-76
2023/08/31 09:17:40;;;;;;;5.20;2.08;;;18.80;99.90;;;;;;4982174;28;20050;-73
2023/08/31 09:20:06;;;;;;;6.68;2.00;;;18.80;99.90;;;;;;4991406;28;20034;-75
2023/08/31 09:22:33;;;;;;;6.32;2.35;;;18.80;99.90;;;;;;4988091;28;20034;-74
2023/08/31 09:24:59;;;;;;;7.70;2.40;;;18.90;99.90;;;;;;4993327;28;20022;-74
2023/08/31 09:27:25;;;;;;;5.57;2.85;;;18.90;99.90;;;;;;4988250;28;20488;-73
2023/08/31 09:29:54;;;;;;;5.93;2.42;;;18.90;99.90;;;;;;4989016;28;20395;-73
2023/08/31 09:32:20;;;;;;;4.85;2.00;;;18.90;99.90;;;;;;4992955;28;20054;-74
2023/08/31 09:34:46;;;;;;;9.48;2.70;;;19.00;99.90;;;;;;4992737;28;20511;-73
2023/08/31 09:37:15;;;;;;;6.90;3.40;;;19.00;99.90;;;;;;4991395;28;20081;-75
2023/08/31 09:39:41;;;;;;;15.90;5.25;;;19.00;99.90;;;;;;4987858;28;20026;-75
2023/08/31 09:42:06;;;;;;;18.17;6.30;;;19.10;99.90;;;;;;4990007;28;20031;-73
2023/08/31 09:44:32;;;;;;;14.82;4.55;;;19.10;99.90;;;;;;4989828;28;20023;-73
2023/08/31 09:46:58;;;;;;;12.90;4.65;;;19.10;99.90;;;;;;4989829;28;20049;-76
2023/08/31 09:49:25;;;;;;;11.43;3.75;;;19.10;99.90;;;;;;4990356;28;20109;-75
2023/08/31 09:51:52;;;;;;;12.02;3.97;;;19.10;99.90;;;;;;4991956;28;20053;-75
2023/08/31 09:54:23;;;;;;;9.23;3.35;;;19.10;99.90;;;;;;4990381;28;20089;-73
2023/08/31 09:56:50;;;;;;;11.27;3.27;;;19.20;99.90;;;;;;5006717;28;20038;-74
2023/08/31 09:59:17;;;;;;;9.30;3.88;;;19.20;99.90;;;;;;4992155;28;20281;-76
2023/08/31 10:01:47;;;;;;;10.75;3.78;;;19.20;99.90;;;;;;4991994;28;20030;-74
2023/08/31 10:04:13;;;;;;;10.13;4.00;;;19.20;99.90;;;;;;4990809;28;20124;-75
2023/08/31 10:06:43;;;;;;;9.65;3.97;;;19.30;99.90;;;;;;4990356;28;20554;-72
2023/08/31 10:09:12;;;;;;;9.95;4.10;;;19.30;99.90;;;;;;4990243;28;20511;-75
2023/08/31 10:11:39;;;;;;;13.43;4.10;;;19.30;99.90;;;;;;4986381;28;20081;-75
2023/08/31 10:14:06;;;;;;;10.25;3.95;;;19.30;99.90;;;;;;4993176;28;20513;-74
2023/08/31 10:16:33;;;;;;;11.05;4.82;;;19.30;99.90;;;;;;4988433;28;20030;-74
2023/08/31 10:18:58;;;;;;;10.15;4.22;;;19.40;99.90;;;;;;4989186;28;20062;-73
2023/08/31 10:21:25;;;;;;;13.50;5.43;;;19.40;99.90;;;;;;4989040;28;20387;-74
2023/08/31 10:23:51;;;;;;;13.73;5.88;;;19.40;99.90;;;;;;4988010;28;20038;-72
2023/08/31 10:26:31;;;;;;;9.10;4.82;;;19.50;99.90;;;;;;4989414;28;20491;-72
2023/08/31 10:28:58;;;;;;;14.57;6.20;;;19.50;99.90;;;;;;4988841;28;20498;-72
2023/08/31 10:31:27;;;;;;;9.85;4.65;;;19.50;99.90;;;;;;4988100;28;20038;-74
2023/08/31 10:34:03;;;;;;;16.50;5.80;;;19.50;99.90;;;;;;4984731;28;20041;-73
2023/08/31 10:36:39;;;;;;;10.65;5.35;;;19.60;99.90;;;;;;4983152;28;21035;-74
2023/08/31 10:39:15;;;;;;;11.68;5.68;;;19.60;99.90;;;;;;4986649;28;20026;-74
2023/08/31 10:41:42;;;;;;;10.98;5.57;;;19.60;99.90;;;;;;4985777;28;20491;-73
2023/08/31 10:44:21;;;;;;;11.70;5.45;;;19.60;99.90;;;;;;4987970;28;20467;-74
2023/08/31 10:46:47;;;;;;;14.40;5.18;;;19.60;99.90;;;;;;4989580;28;20125;-73
2023/08/31 10:49:14;;;;;;;10.93;4.43;;;19.60;99.90;;;;;;4979910;28;20133;-73
2023/08/31 10:51:48;;;;;;;11.32;3.65;;;19.70;99.90;;;;;;4986021;28;20080;-73
2023/08/31 10:54:26;;;;;;;15.48;4.65;;;19.70;99.90;;;;;;4990646;28;20575;-75
2023/08/31 10:57:11;;;;;;;13.40;4.47;;;19.70;99.90;;;;;;4988602;28;20034;-73
2023/08/31 10:59:51;;;;;;;12.20;3.53;;;19.70;99.90;;;;;;4992382;28;20117;-73
2023/08/31 11:02:43;;;;;;;9.23;3.10;;;19.80;99.90;;;;;;4992321;28;20034;-74
2023/08/31 11:05:16;;;;;;;12.00;4.90;;;19.70;99.90;;;;;;4991755;28;20034;-73
2023/08/31 11:07:47;;;;;;;16.95;8.45;;;19.80;99.90;;;;;;4985501;28;20034;-73
2023/08/31 11:10:19;;;;;;;20.55;14.18;;;19.80;99.90;;;;;;4983763;28;20023;-74
2023/08/31 11:12:47;;;;;;;26.88;19.17;;;19.80;99.90;;;;;;4987734;28;20049;-75
2023/08/31 11:15:17;;;;;;;25.02;17.25;;;19.80;99.90;;;;;;4986011;28;20436;-75
2023/08/31 11:17:43;;;;;;;18.83;13.13;;;19.90;99.90;;;;;;4988480;28;20084;-76
2023/08/31 11:20:14;;;;;;;22.38;15.48;;;19.90;99.90;;;;;;4962176;28;20027;-75
2023/08/31 11:22:41;;;;;;;25.40;19.35;;;19.90;99.90;;;;;;4955054;28;20050;-75
2023/08/31 11:25:09;;;;;;;23.10;16.88;;;19.90;99.90;;;;;;4972700;28;20050;-74
2023/08/31 11:27:35;;;;;;;15.73;11.38;;;19.90;99.90;;;;;;4973484;28;20042;-74
2023/08/31 11:30:00;;;;;;;20.17;11.88;;;20.00;99.90;;;;;;4955833;28;20395;-74
2023/08/31 11:32:26;;;;;;;17.45;12.00;;;20.00;99.90;;;;;;4972422;28;20039;-74
2023/08/31 11:34:51;;;;;;;21.02;10.90;;;20.00;99.90;;;;;;4972635;28;20396;-73
2023/08/31 11:37:19;;;;;;;13.07;6.85;;;20.10;99.90;;;;;;4974888;28;20026;-73
2023/08/31 11:39:52;;;;;;;13.85;6.72;;;20.10;99.90;;;;;;4960800;28;20054;-75
2023/08/31 11:42:21;;;;;;;10.27;5.80;;;20.10;99.90;;;;;;4967695;28;20118;-73
2023/08/31 11:44:49;;;;;;;10.65;5.43;;;20.10;99.90;;;;;;4963557;28;20019;-73
2023/08/31 11:47:15;;;;;;;11.82;4.75;;;20.10;99.90;;;;;;4973311;28;20058;-73
2023/08/31 11:49:42;;;;;;;7.40;4.05;;;20.10;99.90;;;;;;4972396;28;20026;-72
2023/08/31 11:52:10;;;;;;;11.18;3.90;;;20.10;99.90;;;;;;4972939;28;20764;-73
2023/08/31 11:54:42;;;;;;;7.57;3.13;;;20.10;99.90;;;;;;4977266;28;20018;-72
2023/08/31 11:57:10;;;;;;;7.07;3.38;;;20.20;99.90;;;;;;4957309;28;20041;-73
2023/08/31 11:59:37;;;;;;;5.30;2.80;;;20.20;99.90;;;;;;4973068;28;20464;-72
2023/08/31 12:02:09;;;;;;;8.32;2.95;;;20.20;99.70;;;;;;4944677;28;20030;-73
2023/08/31 12:04:48;;;;;;;6.75;2.60;;;20.20;99.60;;;;;;4965134;28;20034;-73
2023/08/31 12:07:19;;;;;;;7.50;2.58;;;20.30;99.70;;;;;;4956734;28;20038;-73
2023/08/31 12:09:45;;;;;;;7.97;2.42;;;20.30;99.80;;;;;;4965273;28;20503;-72
2023/08/31 12:12:13;;;;;;;8.63;2.85;;;20.30;99.80;;;;;;4969653;28;20027;-72
2023/08/31 12:14:39;;;;;;;7.78;2.47;;;20.30;99.90;;;;;;4955174;28;20015;-73
2023/08/31 12:17:08;;;;;;;9.75;2.50;;;20.30;99.90;;;;;;4967585;28;20129;-73
2023/08/31 12:19:36;;;;;;;5.05;2.17;;;20.30;99.80;;;;;;4985175;28;20037;-73
2023/08/31 12:22:02;;;;;;;4.95;2.10;;;20.30;99.80;;;;;;4992698;28;20510;-72
2023/08/31 12:24:27;;;;;;;5.57;2.15;;;20.30;99.80;;;;;;4980509;28;20084;-73
2023/08/31 12:26:54;;;;;;;7.10;2.33;;;20.40;99.70;;;;;;4992041;28;20034;-73
2023/08/31 12:29:20;;;;;;;4.15;2.05;;;20.40;99.60;;;;;;4984051;28;20078;-73
2023/08/31 12:31:45;;;;;;;10.82;2.40;;;20.40;99.50;;;;;;4986500;28;20042;-73
2023/08/31 12:34:11;;;;;;;4.57;2.15;;;20.50;99.40;;;;;;4993194;28;20023;-73
2023/08/31 12:36:38;;;;;;;8.70;2.05;;;20.50;99.40;;;;;;4988136;28;20038;-72
2023/08/31 12:39:09;;;;;;;6.65;2.20;;;20.50;99.30;;;;;;4987984;28;20093;-73
2023/08/31 12:41:38;;;;;;;5.15;1.95;;;20.50;99.40;;;;;;4974660;28;20037;-73
2023/08/31 12:44:04;;;;;;;3.92;2.00;;;20.50;99.30;;;;;;4981523;28;20031;-73
2023/08/31 12:46:31;;;;;;;8.82;2.08;;;20.50;99.20;;;;;;4988475;28;20041;-73